createdAt,value
2023-05-11T00:00:41.755Z,151482.41
2023-05-11T00:03:07.604Z,151501.41
2023-05-11T00:05:33.619Z,151493.78
2023-05-11T00:07:59.514Z,151506.47
2023-05-11T00:10:27.851Z,151530.50
2023-05-11T00:12:53.596Z,151503.94
2023-05-11T00:15:19.488Z,151529.25
2023-05-11T00:17:45.703Z,151498.88
2023-05-11T00:20:11.683Z,151510.25
2023-05-11T00:22:38.381Z,151448.25
2023-05-11T00:25:04.930Z,151500.16
2023-05-11T00:27:30.743Z,151506.47
2023-05-11T00:29:56.506Z,151511.50
2023-05-11T00:32:22.316Z,151519.13
2023-05-11T00:34:48.117Z,151492.53
2023-05-11T00:37:13.932Z,151495.06
2023-05-11T00:39:40.057Z,151509.00
2023-05-11T00:42:06.631Z,151536.88
2023-05-11T00:44:32.608Z,151562.19
2023-05-11T00:46:58.700Z,151529.25
2023-05-11T00:49:24.665Z,151516.63
2023-05-11T00:51:51.098Z,151458.34
2023-05-11T00:54:17.608Z,151428.00
2023-05-11T00:56:43.508Z,151441.91
2023-05-11T00:59:09.348Z,151436.81
2023-05-11T01:01:38.016Z,151422.88
2023-05-11T01:04:04.273Z,151436.81
2023-05-11T01:07:00.453Z,151424.19
2023-05-11T01:10:04.700Z,151415.31
2023-05-11T01:12:48.990Z,151436.81
2023-05-11T01:15:36.129Z,151448.25
2023-05-11T01:18:20.730Z,151452.03
2023-05-11T01:20:49.476Z,151449.50
2023-05-11T01:23:35.516Z,151454.53
2023-05-11T01:26:49.305Z,151455.81
2023-05-11T01:29:49.294Z,151481.16
2023-05-11T01:32:20.271Z,151490.00
2023-05-11T01:34:47.776Z,151511.50
2023-05-11T01:37:20.589Z,151502.69
2023-05-11T01:39:52.397Z,151503.94
2023-05-11T01:42:24.237Z,151510.25
2023-05-11T01:44:54.295Z,151516.63
2023-05-11T01:47:23.048Z,151529.25
2023-05-11T01:49:50.946Z,151495.06
2023-05-11T01:52:20.121Z,151519.13
2023-05-11T01:54:48.176Z,151511.50
2023-05-11T01:57:15.517Z,151491.25
2023-05-11T01:59:41.953Z,151493.78
2023-05-11T02:02:09.207Z,151501.41
2023-05-11T02:04:38.006Z,151510.25
2023-05-11T02:07:05.375Z,151514.09
2023-05-11T02:09:33.147Z,151516.63
2023-05-11T02:12:00.525Z,151483.69
2023-05-11T02:14:28.693Z,151474.81
2023-05-11T02:16:56.651Z,151503.94
2023-05-11T02:19:22.576Z,151509.00
2023-05-11T02:21:51.773Z,151511.50
2023-05-11T02:24:19.894Z,151491.25
2023-05-11T02:26:46.391Z,151501.41
2023-05-11T02:29:12.261Z,151493.78
2023-05-11T02:31:43.199Z,151477.38
2023-05-11T02:34:32.665Z,151476.06
2023-05-11T02:37:00.537Z,151464.69
2023-05-11T02:39:35.871Z,151487.47
2023-05-11T02:42:20.035Z,151488.75
2023-05-11T02:45:00.321Z,151483.69
2023-05-11T02:47:36.019Z,151478.63
2023-05-11T02:50:04.185Z,151477.38
2023-05-11T02:52:32.119Z,151484.94
2023-05-11T02:55:00.817Z,151455.81
2023-05-11T02:57:27.032Z,151482.41
2023-05-11T02:59:53.137Z,151491.25
2023-05-11T03:02:19.160Z,151509.00
2023-05-11T03:04:45.247Z,151500.16
2023-05-11T03:07:11.372Z,151505.19
2023-05-11T03:09:37.399Z,151488.75
2023-05-11T03:12:03.884Z,151479.91
2023-05-11T03:14:34.062Z,151500.16
2023-05-11T03:17:00.979Z,151484.94
2023-05-11T03:19:28.106Z,151488.75
2023-05-11T03:21:57.039Z,151497.63
2023-05-11T03:24:24.849Z,151509.00
2023-05-11T03:26:54.322Z,151478.63
2023-05-11T03:29:22.059Z,151446.97
2023-05-11T03:31:50.463Z,151457.06
2023-05-11T03:34:17.222Z,151471.00
2023-05-11T03:36:46.219Z,151482.41
2023-05-11T03:39:14.331Z,151472.28
2023-05-11T03:41:40.906Z,151464.69
2023-05-11T03:44:10.147Z,151436.81
2023-05-11T03:46:39.265Z,151440.63
2023-05-11T03:49:06.375Z,151434.31
2023-05-11T03:51:34.399Z,151431.78
2023-05-11T03:54:00.350Z,151426.72
2023-05-11T03:56:26.528Z,151414.06
2023-05-11T03:58:53.411Z,151417.84
2023-05-11T04:01:20.046Z,151392.53
2023-05-11T04:03:50.787Z,151425.47
2023-05-11T04:06:17.779Z,151382.41
2023-05-11T04:08:43.706Z,151392.53
2023-05-11T04:11:09.716Z,151414.06
2023-05-11T04:13:35.895Z,151443.19
2023-05-11T04:16:01.755Z,151443.19
2023-05-11T04:18:28.597Z,151410.25
2023-05-11T04:20:55.146Z,151401.38
2023-05-11T04:23:22.824Z,151409.00
2023-05-11T04:25:55.405Z,151430.50
2023-05-11T04:28:24.309Z,151424.19
2023-05-11T04:30:54.573Z,151420.38
2023-05-11T04:33:20.778Z,151424.19
2023-05-11T04:35:48.592Z,151444.44
2023-05-11T04:38:14.530Z,151452.03
2023-05-11T04:40:40.370Z,151448.25
2023-05-11T04:43:06.159Z,151446.97
2023-05-11T04:45:31.959Z,151455.81
2023-05-11T04:47:57.877Z,151455.81
2023-05-11T04:50:23.782Z,151433.03
2023-05-11T04:52:49.795Z,151421.63
2023-05-11T04:55:16.221Z,151393.81
2023-05-11T04:57:42.035Z,151416.56
2023-05-11T05:00:08.750Z,151426.72
2023-05-11T05:02:34.974Z,151446.97
2023-05-11T05:05:00.954Z,151449.50
2023-05-11T05:07:26.811Z,151463.44
2023-05-11T05:09:52.646Z,151490.00
2023-05-11T05:12:18.523Z,151460.91
2023-05-11T05:14:44.291Z,151443.19
2023-05-11T05:17:10.356Z,151444.44
2023-05-11T05:19:36.689Z,151446.97
2023-05-11T05:22:02.755Z,151453.28
2023-05-11T05:24:28.564Z,151457.06
2023-05-11T05:26:54.389Z,151458.34
2023-05-11T05:29:20.217Z,151462.16
2023-05-11T05:31:46.210Z,151467.22
2023-05-11T05:34:14.008Z,151490.00
2023-05-11T05:36:41.900Z,151458.34
2023-05-11T05:39:11.928Z,151448.25
2023-05-11T05:41:37.903Z,151443.19
2023-05-11T05:44:03.818Z,151450.75
2023-05-11T05:46:29.704Z,151462.16
2023-05-11T05:48:56.177Z,151457.06
2023-05-11T05:51:22.023Z,151448.25
2023-05-11T05:53:47.812Z,151435.56
2023-05-11T05:56:13.584Z,151439.34
2023-05-11T05:58:39.596Z,151459.66
2023-05-11T06:01:05.413Z,151474.81
2023-05-11T06:03:31.414Z,151476.06
2023-05-11T06:06:00.453Z,151502.69
2023-05-11T06:08:26.261Z,151469.75
2023-05-11T06:10:52.040Z,151507.72
2023-05-11T06:13:17.878Z,151535.59
2023-05-11T06:15:44.035Z,151536.88
2023-05-11T06:18:10.174Z,151527.97
2023-05-11T06:20:38.398Z,151553.34
2023-05-11T06:23:04.299Z,151565.97
2023-05-11T06:25:33.612Z,151582.44
2023-05-11T06:27:59.516Z,151584.97
2023-05-11T06:30:25.416Z,151598.91
2023-05-11T06:32:51.608Z,151541.91
2023-05-11T06:35:17.549Z,151559.66
2023-05-11T06:37:43.533Z,151579.91
2023-05-11T06:40:09.658Z,151592.59
2023-05-11T06:42:35.648Z,151606.53
2023-05-11T06:45:01.612Z,151601.44
2023-05-11T06:47:27.568Z,151595.13
2023-05-11T06:49:53.710Z,151584.97
2023-05-11T06:52:19.587Z,151652.09
2023-05-11T06:54:45.373Z,151662.25
2023-05-11T06:57:12.727Z,151676.19
2023-05-11T06:59:40.196Z,151695.19
2023-05-11T07:02:06.091Z,151710.38
2023-05-11T07:04:31.970Z,151739.53
2023-05-11T07:06:57.881Z,151700.25
2023-05-11T07:09:24.172Z,151735.72
2023-05-11T07:11:51.449Z,151723.06
2023-05-11T07:14:17.579Z,151704.06
2023-05-11T07:16:43.563Z,151695.19
2023-05-11T07:19:09.640Z,151676.19
2023-05-11T07:21:35.992Z,151682.53
2023-05-11T07:24:02.491Z,151672.38
2023-05-11T07:26:28.381Z,151672.38
2023-05-11T07:28:54.464Z,151666.03
2023-05-11T07:31:20.602Z,151677.47
2023-05-11T07:33:46.687Z,151647.06
2023-05-11T07:36:12.710Z,151626.78
2023-05-11T07:38:38.903Z,151605.28
2023-05-11T07:41:06.672Z,151648.31
2023-05-11T07:43:33.083Z,151671.09
2023-05-11T07:45:58.951Z,151706.56
2023-05-11T07:48:24.834Z,151664.78
2023-05-11T07:50:50.930Z,151681.25
2023-05-11T07:53:16.790Z,151633.09
2023-05-11T07:55:42.608Z,151647.06
2023-05-11T07:58:08.503Z,151650.84
2023-05-11T08:00:34.640Z,151630.59
2023-05-11T08:03:01.516Z,151667.31
2023-05-11T08:05:27.682Z,151645.78
2023-05-11T08:07:53.760Z,151638.16
2023-05-11T08:10:19.597Z,151663.53
2023-05-11T08:12:45.549Z,151677.47
2023-05-11T08:15:11.445Z,151674.91
2023-05-11T08:17:37.386Z,151704.06
2023-05-11T08:20:05.848Z,151714.22
2023-05-11T08:22:31.793Z,151742.06
2023-05-11T08:24:58.163Z,151743.31
2023-05-11T08:27:24.095Z,151754.78
2023-05-11T08:29:50.283Z,151775.06
2023-05-11T08:32:16.240Z,151767.47
2023-05-11T08:34:42.248Z,151771.25
2023-05-11T08:37:08.107Z,151820.69
2023-05-11T08:42:06.392Z,151797.84
2023-05-11T08:44:34.269Z,151809.28
2023-05-11T08:47:18.892Z,151775.06
2023-05-11T08:49:47.682Z,151776.31
2023-05-11T08:52:15.623Z,151814.31
2023-05-11T08:54:41.477Z,151833.34
2023-05-11T08:57:09.423Z,151870.09
2023-05-11T08:59:35.735Z,151896.75
2023-05-11T09:02:03.812Z,151890.38
2023-05-11T09:04:30.775Z,151922.06
2023-05-11T09:06:57.722Z,151953.78
2023-05-11T09:09:23.611Z,151934.75
2023-05-11T09:11:49.888Z,151985.47
2023-05-11T09:14:15.774Z,151995.59
2023-05-11T09:16:41.784Z,152041.28
2023-05-11T09:19:15.377Z,152053.97
2023-05-11T09:21:41.583Z,152088.16
2023-05-11T09:24:11.109Z,152160.50
2023-05-11T09:26:37.009Z,152204.94
2023-05-11T09:29:04.133Z,152210.00
2023-05-11T09:31:41.812Z,152234.09
2023-05-11T09:34:28.046Z,152282.31
2023-05-11T09:36:56.207Z,152259.50
2023-05-11T09:39:41.760Z,152287.38
2023-05-11T09:42:21.501Z,152300.09
2023-05-11T09:44:48.098Z,152288.69
2023-05-11T09:47:18.662Z,152263.28
2023-05-11T09:49:46.017Z,152295.03
2023-05-11T09:52:13.328Z,152277.25
2023-05-11T09:54:44.077Z,152281.06
2023-05-11T09:57:24.578Z,152276.00
2023-05-11T09:59:50.808Z,152322.94
2023-05-11T10:02:31.225Z,152273.47
2023-05-11T10:05:00.152Z,152311.53
2023-05-11T10:07:35.839Z,152341.97
2023-05-11T10:10:06.857Z,152325.50
2023-05-11T10:12:33.619Z,152333.09
2023-05-11T10:15:05.023Z,152326.78
2023-05-11T10:17:31.311Z,152364.84
2023-05-11T10:19:58.070Z,152353.41
2023-05-11T10:22:24.911Z,152388.94
2023-05-11T10:24:51.402Z,152350.88
2023-05-11T10:27:20.838Z,152392.75
2023-05-11T10:29:47.723Z,152415.69
2023-05-11T10:32:15.734Z,152488.03
2023-05-11T10:34:42.943Z,152575.63
2023-05-11T10:37:08.888Z,152552.78
2023-05-11T10:39:39.480Z,152543.91
2023-05-11T10:42:32.920Z,152564.22
2023-05-11T10:45:23.931Z,152424.53
2023-05-11T10:47:52.730Z,152448.63
2023-05-11T10:50:45.277Z,152523.59
2023-05-11T10:53:26.278Z,152537.53
2023-05-11T10:56:36.620Z,152556.56
2023-05-11T10:59:11.468Z,152568.00
2023-05-11T11:01:39.079Z,152618.81
2023-05-11T11:04:07.989Z,152620.09
2023-05-11T11:06:36.386Z,152648.00
2023-05-11T11:09:05.407Z,152632.81
2023-05-11T11:11:40.018Z,152570.56
2023-05-11T11:14:08.768Z,152611.19
2023-05-11T11:16:36.220Z,152641.69
2023-05-11T11:19:45.348Z,152689.97
2023-05-11T11:22:37.466Z,152654.41
2023-05-11T11:25:14.257Z,152636.59
2023-05-11T11:27:40.100Z,152639.16
2023-05-11T11:30:30.009Z,152570.56
2023-05-11T11:33:15.859Z,152621.34
2023-05-11T11:35:42.002Z,152611.19
2023-05-11T11:38:29.322Z,152611.19
2023-05-11T11:40:55.611Z,152650.59
2023-05-11T11:43:26.863Z,152623.91
2023-05-11T11:46:02.461Z,152645.47
2023-05-11T11:48:30.057Z,152626.44
2023-05-11T11:51:13.794Z,152597.25
2023-05-11T11:53:43.809Z,152641.69
2023-05-11T11:56:15.517Z,152589.59
2023-05-11T11:58:41.814Z,152621.34
2023-05-11T12:01:09.363Z,152744.66
2023-05-11T12:03:36.362Z,152720.47
2023-05-11T12:06:05.885Z,152734.47
2023-05-11T12:08:42.697Z,152761.16
2023-05-11T12:11:08.843Z,152815.81
2023-05-11T12:13:35.235Z,152850.13
2023-05-11T12:16:18.131Z,152897.13
2023-05-11T12:19:01.520Z,152869.19
2023-05-11T12:21:30.965Z,152871.72
2023-05-11T12:24:06.431Z,152861.53
2023-05-11T12:26:33.763Z,152842.47
2023-05-11T12:29:10.511Z,152860.25
2023-05-11T12:31:38.120Z,152885.72
2023-05-11T12:34:04.158Z,152977.28
2023-05-11T12:36:29.993Z,152981.09
2023-05-11T12:38:56.018Z,152973.44
2023-05-11T12:41:22.998Z,152969.63
2023-05-11T12:43:50.068Z,152927.66
2023-05-11T12:46:17.812Z,152865.34
2023-05-11T12:48:48.382Z,152819.63
2023-05-11T12:51:42.827Z,152758.63
2023-05-11T12:54:09.459Z,152764.97
2023-05-11T12:57:05.394Z,152801.81
2023-05-11T12:59:39.727Z,152726.84
2023-05-11T13:02:20.978Z,152726.84
2023-05-11T13:04:47.510Z,152689.97
2023-05-11T13:07:23.182Z,152557.84
2023-05-11T13:10:00.213Z,152565.47
2023-05-11T13:12:27.653Z,152559.09
2023-05-11T13:15:07.777Z,152480.38
2023-05-11T13:17:36.302Z,152413.09
2023-05-11T13:20:25.721Z,152395.28
2023-05-11T13:23:01.412Z,152390.19
2023-05-11T13:25:27.560Z,152391.47
2023-05-11T13:27:55.198Z,152380.06
2023-05-11T13:30:21.388Z,152378.81
2023-05-11T13:32:47.275Z,152416.94
2023-05-11T13:35:13.149Z,152409.28
2023-05-11T13:37:38.989Z,152376.22
2023-05-11T13:40:09.671Z,152358.47
2023-05-11T13:42:36.249Z,152348.34
2023-05-11T13:45:02.364Z,152324.19
2023-05-11T13:47:28.312Z,152333.09
2023-05-11T13:49:54.371Z,152329.31
2023-05-11T13:52:21.571Z,152353.41
2023-05-11T13:54:48.154Z,152388.94
2023-05-11T13:57:14.207Z,152373.69
2023-05-11T13:59:40.173Z,152378.81
2023-05-11T14:02:06.746Z,152400.38
2023-05-11T14:04:33.058Z,152429.59
2023-05-11T14:06:59.007Z,152394.00
2023-05-11T14:09:25.483Z,152383.88
2023-05-11T14:11:51.411Z,152395.28
2023-05-11T14:14:17.422Z,152354.66
2023-05-11T14:16:43.591Z,152366.09
2023-05-11T14:19:09.640Z,152364.84
2023-05-11T14:21:35.948Z,152391.47
2023-05-11T14:24:11.444Z,152371.16
2023-05-11T14:26:37.974Z,152362.31
2023-05-11T14:29:03.893Z,152350.88
2023-05-11T14:31:30.640Z,152359.72
2023-05-11T14:33:56.847Z,152306.41
2023-05-11T14:36:22.890Z,152272.19
2023-05-11T14:38:48.760Z,152248.06
2023-05-11T14:41:15.023Z,152165.63
2023-05-11T14:43:40.956Z,152100.91
2023-05-11T14:46:06.840Z,152034.91
2023-05-11T14:48:32.919Z,152018.47
2023-05-11T14:50:58.745Z,152007.03
2023-05-11T14:53:24.547Z,152000.72
2023-05-11T14:55:50.479Z,151981.63
2023-05-11T14:58:16.440Z,151989.28
2023-05-11T15:00:43.151Z,151967.72
2023-05-11T15:03:10.118Z,151956.31
2023-05-11T15:05:37.308Z,151979.13
2023-05-11T15:08:03.292Z,151991.81
2023-05-11T15:10:29.185Z,151960.09
2023-05-11T15:12:55.145Z,151979.13
2023-05-11T15:15:21.200Z,151952.50
2023-05-11T15:17:47.162Z,151957.56
2023-05-11T15:20:13.117Z,151988.00
2023-05-11T15:22:39.098Z,151989.28
2023-05-11T15:25:05.382Z,151975.31
2023-05-11T15:27:32.048Z,152008.28
2023-05-11T15:29:58.012Z,152034.91
2023-05-11T15:32:24.002Z,152072.97
2023-05-11T15:34:59.328Z,152033.63
2023-05-11T15:37:26.126Z,152042.53
2023-05-11T15:39:52.001Z,152003.22
2023-05-11T15:42:17.921Z,152008.28
2023-05-11T15:44:44.009Z,151981.63
2023-05-11T15:47:09.880Z,151996.88
2023-05-11T15:49:35.706Z,151995.59
2023-05-11T15:52:01.994Z,152004.50
2023-05-11T15:54:28.500Z,152028.56
2023-05-11T15:56:54.574Z,151998.13
2023-05-11T15:59:20.654Z,151982.94
2023-05-11T16:01:46.704Z,151985.47
2023-05-11T16:04:12.767Z,151989.28
2023-05-11T16:06:39.501Z,152026.03
2023-05-11T16:09:05.507Z,152040.00
2023-05-11T16:11:31.412Z,152022.25
2023-05-11T16:13:57.648Z,152023.53
2023-05-11T16:16:24.182Z,152015.88
2023-05-11T16:18:50.706Z,152003.22
2023-05-11T16:21:16.629Z,151995.59
2023-05-11T16:23:42.516Z,152024.78
2023-05-11T16:26:09.167Z,151996.88
2023-05-11T16:28:35.090Z,151969.00
2023-05-11T16:31:00.913Z,151948.72
2023-05-11T16:33:26.866Z,151961.34
2023-05-11T16:35:52.707Z,151953.78
2023-05-11T16:38:20.555Z,151948.72
2023-05-11T16:40:47.845Z,151948.72
2023-05-11T16:43:13.670Z,151929.69
2023-05-11T16:45:41.509Z,151953.78
2023-05-11T16:48:12.411Z,151939.81
2023-05-11T16:50:38.362Z,151953.78
2023-05-11T16:53:04.559Z,151952.50
2023-05-11T16:55:30.505Z,151928.44
2023-05-11T16:57:56.611Z,151962.63
2023-05-11T17:00:22.733Z,151951.25
2023-05-11T17:02:49.012Z,151909.38
2023-05-11T17:05:17.227Z,151920.81
2023-05-11T17:07:45.543Z,151936.03
2023-05-11T17:10:12.148Z,151948.72
2023-05-11T17:12:38.206Z,151951.25
2023-05-11T17:15:08.951Z,151939.81
2023-05-11T17:17:38.514Z,151936.03
2023-05-11T17:20:07.830Z,151906.84
2023-05-11T17:22:34.519Z,151879.00
2023-05-11T17:25:03.663Z,151914.47
2023-05-11T17:27:34.540Z,151892.94
2023-05-11T17:30:00.457Z,151906.84
2023-05-11T17:32:26.500Z,151924.59
2023-05-11T17:34:52.631Z,151919.53
2023-05-11T17:37:28.205Z,151905.59
2023-05-11T17:39:57.640Z,151906.84
2023-05-11T17:42:23.503Z,151905.59
2023-05-11T17:44:49.471Z,151894.22
2023-05-11T17:47:15.419Z,151894.22
2023-05-11T17:49:41.318Z,151866.31
2023-05-11T17:52:10.335Z,151847.28
2023-05-11T17:54:36.499Z,151835.88
2023-05-11T17:57:04.375Z,151856.19
2023-05-11T17:59:30.366Z,151879.00
2023-05-11T18:01:56.438Z,151886.56
2023-05-11T18:04:22.518Z,151884.03
2023-05-11T18:06:48.756Z,151898.00
2023-05-11T18:09:14.600Z,151868.81
2023-05-11T18:11:41.725Z,151884.03
2023-05-11T18:14:08.617Z,151875.19
2023-05-11T18:16:34.603Z,151870.09
2023-05-11T18:19:00.674Z,151862.50
2023-05-11T18:21:26.979Z,151843.50
2023-05-11T18:23:53.408Z,151829.53
2023-05-11T18:26:21.156Z,151843.50
2023-05-11T18:28:49.778Z,151839.72
2023-05-11T18:31:18.281Z,151830.81
2023-05-11T18:33:46.842Z,151824.50
2023-05-11T18:36:15.196Z,151829.53
2023-05-11T18:38:42.804Z,151824.50
2023-05-11T18:41:08.984Z,151809.28
2023-05-11T18:43:35.450Z,151818.13
2023-05-11T18:46:06.493Z,151802.97
2023-05-11T18:48:33.027Z,151791.53
2023-05-11T18:50:58.896Z,151787.75
2023-05-11T18:53:25.920Z,151811.81
2023-05-11T18:55:55.296Z,151786.47
2023-05-11T18:58:21.542Z,151792.78
2023-05-11T19:00:48.074Z,151782.63
2023-05-11T19:03:14.518Z,151778.84
2023-05-11T19:05:43.084Z,151794.06
2023-05-11T19:08:09.348Z,151802.97
2023-05-11T19:10:38.068Z,151777.59
2023-05-11T19:13:04.699Z,151752.25
2023-05-11T19:15:31.260Z,151763.63
2023-05-11T19:17:57.180Z,151771.25
2023-05-11T19:20:23.170Z,151757.31
2023-05-11T19:22:49.083Z,151758.56
2023-05-11T19:25:15.434Z,151759.84
2023-05-11T19:27:41.364Z,151747.16
2023-05-11T19:30:08.787Z,151759.84
2023-05-11T19:32:35.699Z,151764.91
2023-05-11T19:35:01.651Z,151747.16
2023-05-11T19:37:28.146Z,151749.72
2023-05-11T19:39:55.404Z,151729.41
2023-05-11T19:42:38.347Z,151733.22
2023-05-11T19:45:06.304Z,151763.63
2023-05-11T19:47:32.836Z,151742.06
2023-05-11T19:49:58.985Z,151742.06
2023-05-11T19:52:24.865Z,151739.53
2023-05-11T19:54:51.202Z,151751.00
2023-05-11T19:57:17.815Z,151749.72
2023-05-11T19:59:44.110Z,151744.56
2023-05-11T20:02:09.966Z,151747.16
2023-05-11T20:04:36.147Z,151726.84
2023-05-11T20:07:02.831Z,151720.53
2023-05-11T20:09:31.846Z,151720.53
2023-05-11T20:11:58.088Z,151739.53
2023-05-11T20:14:26.583Z,151737.00
2023-05-11T20:16:53.205Z,151731.94
2023-05-11T20:19:19.865Z,151747.16
2023-05-11T20:21:48.914Z,151751.00
2023-05-11T20:24:15.184Z,151726.84
2023-05-11T20:26:41.535Z,151714.22
2023-05-11T20:29:10.479Z,151704.06
2023-05-11T20:31:37.318Z,151693.94
2023-05-11T20:36:32.651Z,151714.22
2023-05-11T20:38:58.642Z,151693.94
2023-05-11T20:41:24.617Z,151695.19
2023-05-11T20:43:51.902Z,151712.94
2023-05-11T20:46:17.859Z,151697.72
2023-05-11T20:48:46.852Z,151691.38
2023-05-11T20:51:15.497Z,151674.91
2023-05-11T20:53:41.423Z,151693.94
2023-05-11T20:56:09.325Z,151682.53
2023-05-11T20:58:35.505Z,151650.84
2023-05-11T21:01:01.426Z,151631.84
2023-05-11T21:03:27.388Z,151624.25
2023-05-11T21:05:53.240Z,151620.44
2023-05-11T21:08:19.106Z,151617.91
2023-05-11T21:10:44.912Z,151629.31
2023-05-11T21:13:12.384Z,151635.63
2023-05-11T21:15:38.421Z,151635.63
2023-05-11T21:18:04.540Z,151638.16
2023-05-11T21:20:30.495Z,151635.63
2023-05-11T21:22:56.380Z,151644.53
2023-05-11T21:25:22.220Z,151642.00
2023-05-11T21:27:48.148Z,151623.00
2023-05-11T21:30:14.004Z,151654.63
2023-05-11T21:32:39.935Z,151655.88
2023-05-11T21:35:06.412Z,151652.09
2023-05-11T21:37:34.700Z,151661.00
2023-05-11T21:40:00.813Z,151666.03
2023-05-11T21:42:26.831Z,151680.00
2023-05-11T21:44:52.717Z,151695.19
2023-05-11T21:47:18.596Z,151682.53
2023-05-11T21:49:44.428Z,151671.09
2023-05-11T21:52:10.500Z,151688.84
2023-05-11T21:54:36.375Z,151682.53
2023-05-11T21:57:03.130Z,151676.19
2023-05-11T21:59:28.968Z,151690.09
2023-05-11T22:01:56.476Z,151691.38
2023-05-11T22:04:22.960Z,151680.00
2023-05-11T22:06:48.770Z,151695.19
2023-05-11T22:09:14.957Z,151690.09
2023-05-11T22:11:40.827Z,151673.63
2023-05-11T22:14:06.776Z,151681.25
2023-05-11T22:16:32.677Z,151685.03
2023-05-11T22:18:58.607Z,151686.31
2023-05-11T22:21:27.155Z,151688.84
2023-05-11T22:23:53.155Z,151668.56
2023-05-11T22:26:18.957Z,151673.63
2023-05-11T22:28:44.889Z,151676.19
2023-05-11T22:31:10.826Z,151681.25
2023-05-11T22:33:36.753Z,151695.19
2023-05-11T22:36:03.053Z,151661.00
2023-05-11T22:38:29.626Z,151654.63
2023-05-11T22:40:55.558Z,151659.72
2023-05-11T22:43:21.374Z,151661.00
2023-05-11T22:45:47.626Z,151634.38
2023-05-11T22:48:13.521Z,151620.44
2023-05-11T22:50:45.827Z,151630.59
2023-05-11T22:53:11.684Z,151630.59
2023-05-11T22:55:37.670Z,151650.84
2023-05-11T22:58:03.469Z,151635.63
2023-05-11T23:00:29.366Z,151633.09
2023-05-11T23:02:55.313Z,151642.00
2023-05-11T23:05:21.203Z,151643.25
2023-05-11T23:07:47.157Z,151606.53
2023-05-11T23:10:13.126Z,151628.06
2023-05-11T23:12:39.004Z,151616.63
2023-05-11T23:15:05.653Z,151586.28
2023-05-11T23:17:31.638Z,151581.16
2023-05-11T23:19:57.680Z,151588.78
2023-05-11T23:22:23.980Z,151578.66
2023-05-11T23:24:49.725Z,151568.53
2023-05-11T23:27:16.438Z,151576.13
2023-05-11T23:29:42.487Z,151581.16
2023-05-11T23:32:08.596Z,151555.84
2023-05-11T23:34:34.400Z,151565.97
2023-05-11T23:37:00.434Z,151576.13
2023-05-11T23:39:26.389Z,151584.97
2023-05-11T23:41:52.355Z,151595.13
2023-05-11T23:44:18.178Z,151596.38
2023-05-11T23:46:44.064Z,151631.84
2023-05-11T23:49:09.933Z,151631.84
2023-05-11T23:51:35.804Z,151639.47
2023-05-11T23:54:01.857Z,151628.06
2023-05-11T23:56:27.685Z,151621.75
2023-05-11T23:58:53.658Z,151629.31
